createdAt,value
2024-02-08T00:01:34.266Z,90586.94
2024-02-08T00:04:00.684Z,90585.41
2024-02-08T00:06:27.243Z,90583.50
2024-02-08T00:08:54.742Z,90578.56
2024-02-08T00:11:21.562Z,90578.69
2024-02-08T00:13:48.929Z,90583.66
2024-02-08T00:16:15.299Z,90588.53
2024-02-08T00:18:41.802Z,90576.06
2024-02-08T00:21:10.314Z,90577.59
2024-02-08T00:23:37.939Z,90577.22
2024-02-08T00:26:04.473Z,90575.09
2024-02-08T00:28:30.915Z,90562.06
2024-02-08T00:30:57.600Z,90570.38
2024-02-08T00:33:26.558Z,90570.34
2024-02-08T00:35:53.262Z,90562.97
2024-02-08T00:38:19.714Z,90574.56
2024-02-08T00:40:47.447Z,90569.34
2024-02-08T00:43:13.892Z,90567.16
2024-02-08T00:45:40.282Z,90555.13
2024-02-08T00:48:07.086Z,90549.50
2024-02-08T00:50:33.466Z,90555.84
2024-02-08T00:53:01.636Z,90550.56
2024-02-08T00:55:30.265Z,90554.91
2024-02-08T00:57:56.756Z,90554.84
2024-02-08T01:00:23.241Z,90545.75
2024-02-08T01:02:49.570Z,90546.25
2024-02-08T01:05:16.197Z,90538.38
2024-02-08T01:07:42.733Z,90549.09
2024-02-08T01:10:09.140Z,90544.97
2024-02-08T01:12:35.562Z,90546.31
2024-02-08T01:15:03.409Z,90546.53
2024-02-08T01:17:29.836Z,90543.50
2024-02-08T01:20:00.349Z,90535.66
2024-02-08T01:22:27.072Z,90533.00
2024-02-08T01:24:53.522Z,90536.38
2024-02-08T01:27:22.138Z,90541.50
2024-02-08T01:29:50.320Z,90535.31
2024-02-08T01:32:16.866Z,90538.41
2024-02-08T01:34:45.948Z,90536.53
2024-02-08T01:37:14.259Z,90535.25
2024-02-08T01:39:40.997Z,90534.59
2024-02-08T01:42:14.152Z,90530.81
2024-02-08T01:44:49.547Z,90537.25
2024-02-08T01:47:18.554Z,90526.47
2024-02-08T01:49:47.469Z,90523.69
2024-02-08T01:52:19.647Z,90509.94
2024-02-08T01:54:48.146Z,90513.81
2024-02-08T01:57:14.489Z,90508.53
2024-02-08T01:59:41.520Z,90515.59
2024-02-08T02:02:08.879Z,90508.28
2024-02-08T02:04:35.684Z,90503.75
2024-02-08T02:07:03.454Z,90502.09
2024-02-08T02:09:31.588Z,90500.03
2024-02-08T02:11:59.246Z,90493.28
2024-02-08T02:14:30.405Z,90492.78
2024-02-08T02:17:09.772Z,90490.81
2024-02-08T02:19:36.243Z,90484.72
2024-02-08T02:22:02.673Z,90486.88
2024-02-08T02:24:30.585Z,90474.22
2024-02-08T02:26:58.652Z,90484.72
2024-02-08T02:29:25.848Z,90482.97
2024-02-08T02:31:52.232Z,90488.22
2024-02-08T02:34:18.750Z,90481.44
2024-02-08T02:36:46.005Z,90488.31
2024-02-08T02:39:13.877Z,90483.72
2024-02-08T02:41:41.428Z,90480.94
2024-02-08T02:44:09.685Z,90483.69
2024-02-08T02:46:39.045Z,90479.72
2024-02-08T02:49:05.516Z,90477.97
2024-02-08T02:51:32.257Z,90482.34
2024-02-08T02:53:59.166Z,90480.19
2024-02-08T02:56:25.548Z,90474.38
2024-02-08T02:58:53.082Z,90472.53
2024-02-08T03:01:20.388Z,90472.59
2024-02-08T03:03:48.494Z,90477.78
2024-02-08T03:06:15.901Z,90471.75
2024-02-08T03:08:44.105Z,90476.78
2024-02-08T03:11:12.144Z,90474.41
2024-02-08T03:13:39.560Z,90471.91
2024-02-08T03:16:07.065Z,90473.16
2024-02-08T03:18:33.626Z,90472.06
2024-02-08T03:21:02.278Z,90475.88
2024-02-08T03:23:28.664Z,90474.06
2024-02-08T03:25:57.748Z,90470.47
2024-02-08T03:28:24.539Z,90470.34
2024-02-08T03:30:53.649Z,90456.00
2024-02-08T03:33:20.123Z,90457.47
2024-02-08T03:35:54.534Z,90473.09
2024-02-08T03:38:21.220Z,90475.13
2024-02-08T03:40:47.615Z,90466.25
2024-02-08T03:43:16.896Z,90470.19
2024-02-08T03:45:44.626Z,90466.81
2024-02-08T03:48:12.447Z,90462.28
2024-02-08T03:50:40.432Z,90468.91
2024-02-08T03:53:14.717Z,90481.97
2024-02-08T03:55:45.091Z,90473.97
2024-02-08T03:58:15.030Z,90481.84
2024-02-08T04:00:47.406Z,90483.19
2024-02-08T04:03:34.632Z,90480.50
2024-02-08T04:06:04.942Z,90477.78
2024-02-08T04:08:54.439Z,90482.72
2024-02-08T04:11:39.318Z,90482.66
2024-02-08T04:14:24.363Z,90489.41
2024-02-08T04:17:09.350Z,90483.31
2024-02-08T04:19:54.177Z,90480.25
2024-02-08T04:22:39.411Z,90482.72
2024-02-08T04:25:24.143Z,90477.53
2024-02-08T04:28:09.033Z,90476.34
2024-02-08T04:30:53.766Z,90473.22
2024-02-08T04:33:38.953Z,90472.41
2024-02-08T04:36:29.676Z,90471.09
2024-02-08T04:39:14.465Z,90464.34
2024-02-08T04:41:59.704Z,90471.59
2024-02-08T04:44:44.566Z,90458.56
2024-02-08T04:47:29.462Z,90450.06
2024-02-08T04:50:14.461Z,90447.50
2024-02-08T04:52:59.576Z,90453.19
2024-02-08T04:55:26.012Z,90446.16
2024-02-08T04:57:52.736Z,90454.25
2024-02-08T05:00:19.853Z,90452.19
2024-02-08T05:02:46.206Z,90447.31
2024-02-08T05:05:12.889Z,90455.81
2024-02-08T05:07:39.612Z,90451.13
2024-02-08T05:10:06.365Z,90450.47
2024-02-08T05:12:32.889Z,90451.47
2024-02-08T05:14:59.358Z,90447.44
2024-02-08T05:17:26.812Z,90447.63
2024-02-08T05:19:53.253Z,90439.88
2024-02-08T05:22:19.727Z,90435.31
2024-02-08T05:24:47.344Z,90438.91
2024-02-08T05:27:13.731Z,90435.91
2024-02-08T05:29:42.452Z,90433.72
2024-02-08T05:32:10.997Z,90430.72
2024-02-08T05:34:38.096Z,90422.47
2024-02-08T05:37:04.745Z,90420.25
2024-02-08T05:39:31.198Z,90410.78
2024-02-08T05:41:58.775Z,90407.78
2024-02-08T05:44:30.683Z,90405.72
2024-02-08T05:46:58.222Z,90397.41
2024-02-08T05:49:27.379Z,90390.31
2024-02-08T05:51:55.745Z,90378.84
2024-02-08T05:54:23.895Z,90388.22
2024-02-08T05:56:53.660Z,90395.53
2024-02-08T05:59:20.934Z,90395.22
2024-02-08T06:01:51.449Z,90410.69
2024-02-08T06:04:25.421Z,90421.16
2024-02-08T06:07:06.261Z,90407.31
2024-02-08T06:09:48.473Z,90412.34
2024-02-08T06:12:25.249Z,90420.47
2024-02-08T06:15:00.972Z,90420.88
2024-02-08T06:17:33.476Z,90415.63
2024-02-08T06:20:01.467Z,90423.84
2024-02-08T06:22:30.248Z,90422.84
2024-02-08T06:25:09.544Z,90424.69
2024-02-08T06:27:37.703Z,90420.41
2024-02-08T06:30:10.681Z,90418.06
2024-02-08T06:32:45.382Z,90420.16
2024-02-08T06:35:21.383Z,90424.09
2024-02-08T06:38:01.336Z,90428.41
2024-02-08T06:40:51.658Z,90423.47
2024-02-08T06:43:21.195Z,90416.69
2024-02-08T06:45:47.905Z,90410.25
2024-02-08T06:48:37.982Z,90410.94
2024-02-08T06:51:23.298Z,90396.53
2024-02-08T06:54:09.999Z,90399.03
2024-02-08T06:56:55.411Z,90406.41
2024-02-08T06:59:48.213Z,90406.34
2024-02-08T07:02:33.520Z,90410.19
2024-02-08T07:05:18.587Z,90412.81
2024-02-08T07:08:03.844Z,90419.50
2024-02-08T07:10:49.076Z,90416.44
2024-02-08T07:13:34.227Z,90428.31
2024-02-08T07:16:19.475Z,90426.03
2024-02-08T07:19:07.522Z,90429.06
2024-02-08T07:21:54.017Z,90420.38
2024-02-08T07:24:39.442Z,90422.13
2024-02-08T07:27:24.483Z,90418.09
2024-02-08T07:30:09.690Z,90416.75
2024-02-08T07:32:54.850Z,90427.53
2024-02-08T07:35:39.792Z,90436.47
2024-02-08T07:38:08.672Z,90433.56
2024-02-08T07:40:38.638Z,90430.47
2024-02-08T07:43:14.550Z,90422.34
2024-02-08T07:45:57.029Z,90431.56
2024-02-08T07:48:42.390Z,90421.41
2024-02-08T07:51:08.939Z,90413.84
2024-02-08T07:53:36.428Z,90399.91
2024-02-08T07:56:23.278Z,90404.00
2024-02-08T07:58:50.196Z,90401.13
2024-02-08T08:01:20.065Z,90407.66
2024-02-08T08:03:46.755Z,90408.72
2024-02-08T08:06:16.370Z,90400.16
2024-02-08T08:08:58.463Z,90398.63
2024-02-08T08:11:32.020Z,90404.47
2024-02-08T08:13:58.492Z,90405.59
2024-02-08T08:16:31.398Z,90396.25
2024-02-08T08:18:58.778Z,90400.53
2024-02-08T08:21:28.654Z,90402.50
2024-02-08T08:24:01.813Z,90404.44
2024-02-08T08:26:40.762Z,90401.44
2024-02-08T08:29:14.480Z,90403.66
2024-02-08T08:31:53.651Z,90401.53
2024-02-08T08:34:29.644Z,90394.19
2024-02-08T08:36:59.587Z,90397.59
2024-02-08T08:39:44.887Z,90384.63
2024-02-08T08:42:17.579Z,90394.66
2024-02-08T08:44:49.921Z,90387.19
2024-02-08T08:47:17.466Z,90387.44
2024-02-08T08:49:44.218Z,90392.47
2024-02-08T08:52:11.019Z,90391.38
2024-02-08T08:54:43.244Z,90392.19
2024-02-08T08:57:13.698Z,90396.50
2024-02-08T08:59:43.798Z,90400.25
2024-02-08T09:02:10.772Z,90393.88
2024-02-08T09:04:37.917Z,90388.44
2024-02-08T09:07:12.542Z,90394.94
2024-02-08T09:09:58.345Z,90394.38
2024-02-08T09:12:37.284Z,90393.44
2024-02-08T09:15:21.030Z,90387.34
2024-02-08T09:17:53.834Z,90385.66
2024-02-08T09:20:21.631Z,90381.63
2024-02-08T09:22:50.421Z,90385.31
2024-02-08T09:25:27.584Z,90374.22
2024-02-08T09:28:22.120Z,90375.81
2024-02-08T09:30:54.195Z,90373.06
2024-02-08T09:33:36.564Z,90362.38
2024-02-08T09:36:03.216Z,90360.56
2024-02-08T09:38:29.835Z,90348.56
2024-02-08T09:41:00.374Z,90358.63
2024-02-08T09:43:30.384Z,90359.75
2024-02-08T09:46:12.405Z,90349.59
2024-02-08T09:48:48.917Z,90343.00
2024-02-08T09:51:24.449Z,90338.94
2024-02-08T09:53:55.593Z,90330.88
2024-02-08T09:56:30.007Z,90324.09
2024-02-08T09:59:05.561Z,90334.69
2024-02-08T10:01:43.563Z,90327.63
2024-02-08T10:04:17.585Z,90329.88
2024-02-08T10:06:58.613Z,90325.50
2024-02-08T10:09:41.457Z,90324.44
2024-02-08T10:12:20.171Z,90327.75
2024-02-08T10:14:52.018Z,90316.56
2024-02-08T10:17:42.373Z,90307.97
2024-02-08T10:20:27.914Z,90308.25
2024-02-08T10:22:58.826Z,90308.78
2024-02-08T10:25:43.999Z,90307.84
2024-02-08T10:28:10.610Z,90304.22
2024-02-08T10:30:45.461Z,90304.94
2024-02-08T10:33:16.118Z,90292.13
2024-02-08T10:35:42.958Z,90299.91
2024-02-08T10:38:19.827Z,90293.63
2024-02-08T10:40:48.218Z,90288.78
2024-02-08T10:43:25.399Z,90298.91
2024-02-08T10:45:56.209Z,90289.03
2024-02-08T10:48:23.387Z,90288.38
2024-02-08T10:50:53.081Z,90290.78
2024-02-08T10:53:38.363Z,90296.66
2024-02-08T10:56:15.115Z,90296.72
2024-02-08T10:58:56.270Z,90300.25
2024-02-08T11:01:39.156Z,90304.03
2024-02-08T11:04:21.263Z,90298.31
2024-02-08T11:06:59.640Z,90292.50
2024-02-08T11:09:29.120Z,90276.81
2024-02-08T11:12:00.316Z,90275.13
2024-02-08T11:14:27.939Z,90272.47
2024-02-08T11:16:54.472Z,90267.66
2024-02-08T11:19:21.188Z,90266.97
2024-02-08T11:21:50.653Z,90257.25
2024-02-08T11:24:30.985Z,90240.50
2024-02-08T11:26:59.220Z,90245.84
2024-02-08T11:29:27.898Z,90239.53
2024-02-08T11:31:56.678Z,90233.81
2024-02-08T11:34:28.621Z,90232.56
2024-02-08T11:37:00.441Z,90219.88
2024-02-08T11:39:30.765Z,90213.56
2024-02-08T11:41:58.259Z,90202.84
2024-02-08T11:44:29.868Z,90198.50
2024-02-08T11:47:00.184Z,90189.22
2024-02-08T11:49:33.830Z,90187.06
2024-02-08T11:52:07.938Z,90175.41
2024-02-08T11:54:40.420Z,90165.72
2024-02-08T11:57:11.374Z,90159.72
2024-02-08T11:59:39.738Z,90163.19
2024-02-08T12:02:09.755Z,90163.50
2024-02-08T12:04:36.531Z,90163.19
2024-02-08T12:07:08.635Z,90162.16
2024-02-08T12:09:35.404Z,90155.59
2024-02-08T12:12:04.110Z,90145.75
2024-02-08T12:14:30.530Z,90148.84
2024-02-08T12:17:00.476Z,90149.53
2024-02-08T12:19:29.277Z,90147.00
2024-02-08T12:21:58.972Z,90135.22
2024-02-08T12:24:32.361Z,90131.44
2024-02-08T12:27:06.371Z,90135.63
2024-02-08T12:29:32.961Z,90130.09
2024-02-08T12:31:59.324Z,90131.81
2024-02-08T12:34:32.722Z,90129.59
2024-02-08T12:37:06.154Z,90128.97
2024-02-08T12:39:36.969Z,90128.78
2024-02-08T12:42:06.155Z,90126.69
2024-02-08T12:44:35.493Z,90124.38
2024-02-08T12:47:07.410Z,90122.97
2024-02-08T12:49:37.230Z,90127.44
2024-02-08T12:52:11.093Z,90123.41
2024-02-08T12:54:38.759Z,90116.34
2024-02-08T12:57:09.784Z,90108.81
2024-02-08T12:59:36.874Z,90099.00
2024-02-08T13:02:10.077Z,90094.38
2024-02-08T13:04:44.928Z,90086.78
2024-02-08T13:07:15.693Z,90076.63
2024-02-08T13:09:42.246Z,90072.84
2024-02-08T13:12:22.295Z,90063.25
2024-02-08T13:14:51.893Z,90070.44
2024-02-08T13:17:21.666Z,90067.78
2024-02-08T13:22:26.567Z,90067.34
2024-02-08T13:24:53.637Z,90068.31
2024-02-08T13:27:26.071Z,90044.00
2024-02-08T13:29:53.087Z,90041.34
2024-02-08T13:32:19.880Z,90039.53
2024-02-08T13:34:46.393Z,90024.66
2024-02-08T13:37:18.963Z,90026.88
2024-02-08T13:39:48.934Z,90017.00
2024-02-08T13:42:16.789Z,90006.03
2024-02-08T13:44:45.592Z,90004.03
2024-02-08T13:47:19.895Z,89997.97
2024-02-08T13:49:50.694Z,89993.91
2024-02-08T13:52:19.133Z,89980.69
2024-02-08T13:54:49.206Z,89981.47
2024-02-08T13:57:15.764Z,89987.13
2024-02-08T13:59:51.155Z,89988.75
2024-02-08T14:02:17.643Z,89984.06
2024-02-08T14:04:51.142Z,89983.81
2024-02-08T14:07:18.567Z,89983.22
2024-02-08T14:09:46.877Z,89980.53
2024-02-08T14:12:13.431Z,89973.66
2024-02-08T14:14:44.689Z,89966.50
2024-02-08T14:17:11.999Z,89953.06
2024-02-08T14:19:38.708Z,89950.25
2024-02-08T14:22:08.544Z,89944.16
2024-02-08T14:24:40.470Z,89940.78
2024-02-08T14:27:06.979Z,89939.41
2024-02-08T14:29:36.700Z,89932.91
2024-02-08T14:32:07.137Z,89929.09
2024-02-08T14:34:37.324Z,89925.25
2024-02-08T14:37:05.053Z,89924.00
2024-02-08T14:39:35.233Z,89924.88
2024-02-08T14:42:18.847Z,89920.53
2024-02-08T14:44:45.925Z,89908.31
2024-02-08T14:47:22.587Z,89910.09
2024-02-08T14:50:17.177Z,89902.03
2024-02-08T14:52:50.640Z,89906.28
2024-02-08T14:55:23.975Z,89898.94
2024-02-08T14:57:53.780Z,89889.94
2024-02-08T15:00:33.002Z,89885.00
2024-02-08T15:03:21.657Z,89879.31
2024-02-08T15:05:49.255Z,89875.69
2024-02-08T15:08:28.652Z,89867.91
2024-02-08T15:11:04.179Z,89867.88
2024-02-08T15:13:39.272Z,89878.13
2024-02-08T15:16:09.083Z,89875.25
2024-02-08T15:18:48.306Z,89864.31
2024-02-08T15:21:35.819Z,89860.97
2024-02-08T15:24:14.369Z,89857.56
2024-02-08T15:26:49.035Z,89863.19
2024-02-08T15:29:31.845Z,89864.16
2024-02-08T15:31:58.561Z,89861.50
2024-02-08T15:34:43.848Z,89848.03
2024-02-08T15:37:14.939Z,89851.97
2024-02-08T15:39:41.362Z,89842.16
2024-02-08T15:42:11.669Z,89838.13
2024-02-08T15:44:44.975Z,89839.91
2024-02-08T15:47:17.433Z,89832.22
2024-02-08T15:49:44.897Z,89832.81
2024-02-08T15:52:23.322Z,89835.44
2024-02-08T15:54:56.368Z,89817.38
2024-02-08T15:57:26.645Z,89818.84
2024-02-08T15:59:58.569Z,89803.47
2024-02-08T16:02:26.324Z,89809.09
2024-02-08T16:04:53.522Z,89806.06
2024-02-08T16:07:21.470Z,89804.81
2024-02-08T16:09:50.476Z,89798.28
2024-02-08T16:12:37.800Z,89795.53
2024-02-08T16:15:10.551Z,89790.78
2024-02-08T16:17:37.849Z,89790.34
2024-02-08T16:20:11.711Z,89774.50
2024-02-08T16:22:57.977Z,89778.88
2024-02-08T16:25:44.729Z,89763.00
2024-02-08T16:28:18.139Z,89763.78
2024-02-08T16:31:01.474Z,89753.28
2024-02-08T16:33:46.867Z,89748.13
2024-02-08T16:36:41.672Z,89747.19
2024-02-08T16:39:09.008Z,89746.41
2024-02-08T16:41:49.888Z,89755.97
2024-02-08T16:44:17.703Z,89741.56
2024-02-08T16:46:53.173Z,89737.59
2024-02-08T16:49:19.779Z,89733.03
2024-02-08T16:51:46.858Z,89732.06
2024-02-08T16:54:30.181Z,89724.84
2024-02-08T16:56:59.726Z,89721.63
2024-02-08T16:59:30.486Z,89727.09
2024-02-08T17:02:09.161Z,89736.41
2024-02-08T17:04:49.209Z,89729.69
2024-02-08T17:07:37.251Z,89720.06
2024-02-08T17:10:09.635Z,89719.88
2024-02-08T17:12:58.501Z,89719.06
2024-02-08T17:15:28.521Z,89716.34
2024-02-08T17:18:07.674Z,89709.94
2024-02-08T17:20:43.662Z,89717.78
2024-02-08T17:23:19.960Z,89706.88
2024-02-08T17:25:57.046Z,89706.31
2024-02-08T17:28:33.037Z,89711.03
2024-02-08T17:31:07.918Z,89704.69
2024-02-08T17:33:40.766Z,89704.41
2024-02-08T17:36:14.567Z,89707.59
2024-02-08T17:38:41.272Z,89697.72
2024-02-08T17:41:15.112Z,89693.72
2024-02-08T17:43:50.483Z,89696.69
2024-02-08T17:46:21.237Z,89692.84
2024-02-08T17:48:55.718Z,89704.13
2024-02-08T17:51:32.533Z,89709.13
2024-02-08T17:54:01.563Z,89709.78
2024-02-08T17:56:31.794Z,89699.72
2024-02-08T17:58:59.940Z,89696.28
2024-02-08T18:01:55.051Z,89696.88
2024-02-08T18:04:25.060Z,89691.69
2024-02-08T18:06:54.132Z,89684.09
2024-02-08T18:09:24.594Z,89685.38
2024-02-08T18:11:50.969Z,89693.03
2024-02-08T18:14:17.574Z,89680.16
2024-02-08T18:16:45.097Z,89680.47
2024-02-08T18:19:14.842Z,89681.84
2024-02-08T18:21:43.090Z,89682.72
2024-02-08T18:24:09.553Z,89681.66
2024-02-08T18:26:36.581Z,89676.88
2024-02-08T18:29:05.641Z,89668.41
2024-02-08T18:31:33.605Z,89654.34
2024-02-08T18:34:00.222Z,89646.59
2024-02-08T18:36:26.651Z,89647.47
2024-02-08T18:38:53.844Z,89643.97
2024-02-08T18:41:21.480Z,89637.25
2024-02-08T18:43:52.766Z,89621.28
2024-02-08T18:46:20.526Z,89622.44
2024-02-08T18:48:54.193Z,89607.56
2024-02-08T18:51:22.980Z,89616.34
2024-02-08T18:53:51.028Z,89618.19
2024-02-08T18:56:19.395Z,89611.41
2024-02-08T18:58:51.599Z,89607.66
2024-02-08T19:01:18.038Z,89600.91
2024-02-08T19:03:47.643Z,89608.81
2024-02-08T19:06:18.982Z,89617.91
2024-02-08T19:08:45.603Z,89610.22
2024-02-08T19:11:12.309Z,89600.09
2024-02-08T19:13:40.182Z,89601.81
2024-02-08T19:16:17.347Z,89597.13
2024-02-08T19:18:51.609Z,89589.44
2024-02-08T19:21:21.284Z,89587.44
2024-02-08T19:23:47.630Z,89603.22
2024-02-08T19:26:22.423Z,89599.72
2024-02-08T19:28:49.114Z,89602.03
2024-02-08T19:31:16.161Z,89592.97
2024-02-08T19:33:49.412Z,89593.81
2024-02-08T19:36:25.153Z,89585.66
2024-02-08T19:38:54.816Z,89590.34
2024-02-08T19:41:22.122Z,89592.75
2024-02-08T19:43:51.539Z,89593.88
2024-02-08T19:46:21.038Z,89590.66
2024-02-08T19:48:53.417Z,89586.03
2024-02-08T19:51:23.438Z,89583.16
2024-02-08T19:53:51.313Z,89587.88
2024-02-08T19:56:19.724Z,89592.41
2024-02-08T19:58:48.391Z,89577.41
2024-02-08T20:01:17.620Z,89580.38
2024-02-08T20:03:48.415Z,89570.13
2024-02-08T20:06:18.739Z,89576.78
2024-02-08T20:08:46.373Z,89570.72
2024-02-08T20:11:12.893Z,89569.06
2024-02-08T20:13:39.561Z,89565.03
2024-02-08T20:16:07.652Z,89573.81
2024-02-08T20:18:38.230Z,89575.53
2024-02-08T20:21:05.150Z,89572.34
2024-02-08T20:23:34.756Z,89577.97
2024-02-08T20:26:01.376Z,89560.78
2024-02-08T20:28:32.482Z,89559.16
2024-02-08T20:30:59.785Z,89562.78
2024-02-08T20:33:29.949Z,89564.44
2024-02-08T20:36:01.706Z,89563.28
2024-02-08T20:38:31.603Z,89561.31
2024-02-08T20:40:57.974Z,89563.72
2024-02-08T20:43:27.441Z,89553.59
2024-02-08T20:45:55.579Z,89554.50
2024-02-08T20:48:22.205Z,89557.31
2024-02-08T20:50:48.825Z,89556.81
2024-02-08T20:53:18.110Z,89551.44
2024-02-08T20:55:45.737Z,89558.09
2024-02-08T20:58:13.204Z,89559.72
2024-02-08T21:00:41.943Z,89564.53
2024-02-08T21:03:10.366Z,89562.94
2024-02-08T21:05:40.506Z,89565.44
2024-02-08T21:08:08.886Z,89568.78
2024-02-08T21:10:48.144Z,89570.00
2024-02-08T21:13:18.186Z,89567.38
2024-02-08T21:15:44.934Z,89572.91
2024-02-08T21:18:16.009Z,89558.50
2024-02-08T21:20:43.263Z,89568.19
2024-02-08T21:23:10.092Z,89568.84
2024-02-08T21:25:40.319Z,89564.59
2024-02-08T21:28:07.344Z,89565.75
2024-02-08T21:30:37.240Z,89564.53
2024-02-08T21:33:06.563Z,89576.28
2024-02-08T21:35:33.042Z,89560.53
2024-02-08T21:38:00.339Z,89562.53
2024-02-08T21:40:26.756Z,89572.00
2024-02-08T21:42:54.232Z,89564.25
2024-02-08T21:45:21.845Z,89564.84
2024-02-08T21:47:51.352Z,89559.09
2024-02-08T21:50:17.729Z,89560.66
2024-02-08T21:52:44.069Z,89564.56
2024-02-08T21:55:10.454Z,89555.34
2024-02-08T21:57:36.928Z,89553.13
2024-02-08T22:00:11.959Z,89550.59
2024-02-08T22:02:40.855Z,89545.88
2024-02-08T22:05:14.300Z,89552.97
2024-02-08T22:07:41.004Z,89546.41
2024-02-08T22:10:12.747Z,89536.03
2024-02-08T22:12:40.324Z,89533.22
2024-02-08T22:15:06.841Z,89535.88
2024-02-08T22:17:33.223Z,89536.28
2024-02-08T22:19:59.968Z,89531.19
2024-02-08T22:22:27.213Z,89530.88
2024-02-08T22:24:55.568Z,89524.16
2024-02-08T22:27:21.928Z,89524.41
2024-02-08T22:29:48.548Z,89516.56
2024-02-08T22:32:14.889Z,89517.66
2024-02-08T22:34:42.524Z,89515.03
2024-02-08T22:37:09.003Z,89504.78
2024-02-08T22:39:37.079Z,89499.16
2024-02-08T22:42:04.674Z,89500.69
2024-02-08T22:44:31.243Z,89492.72
2024-02-08T22:46:57.641Z,89483.19
2024-02-08T22:49:26.437Z,89477.03
2024-02-08T22:51:53.224Z,89477.63
2024-02-08T22:54:21.354Z,89480.47
2024-02-08T22:56:50.717Z,89461.31
2024-02-08T22:59:20.523Z,89475.16
2024-02-08T23:01:57.803Z,89471.38
2024-02-08T23:04:24.716Z,89470.19
2024-02-08T23:06:52.490Z,89469.56
2024-02-08T23:09:19.111Z,89469.47
2024-02-08T23:11:45.817Z,89472.34
2024-02-08T23:14:12.454Z,89475.81
2024-02-08T23:16:41.678Z,89481.91
2024-02-08T23:19:12.716Z,89477.28
2024-02-08T23:21:40.964Z,89488.03
2024-02-08T23:24:11.142Z,89484.06
2024-02-08T23:26:37.669Z,89478.34
2024-02-08T23:29:04.707Z,89486.72
2024-02-08T23:31:32.355Z,89472.88
2024-02-08T23:34:01.305Z,89471.47
2024-02-08T23:36:29.117Z,89458.69
2024-02-08T23:39:00.476Z,89449.16
2024-02-08T23:41:30.471Z,89453.16
2024-02-08T23:43:57.811Z,89443.00
2024-02-08T23:46:27.102Z,89434.84
2024-02-08T23:48:55.855Z,89436.56
2024-02-08T23:51:22.880Z,89431.41
2024-02-08T23:53:49.918Z,89432.91
2024-02-08T23:56:16.227Z,89425.66
2024-02-08T23:58:43.393Z,89425.38
